Time;durP1;ratioP1;P1;durP2;ratioP2;P2;SDS_P1;SDS_P2;PMS_P1;PMS_P2;Temp;Humidity;BMP_temperature;BMP_pressure;BME280_temperature;BME280_humidity;BME280_pressure;Samples;Min_cycle;Max_cycle;Signal;HPM_P1;HPM_P2
2022/04/28 00:01:02;;;;;;;6.20;4.17;;;;;;;;;;4965261;28;20191;-54
2022/04/28 00:03:28;;;;;;;5.97;4.40;;;;;;;;;;4968920;28;20889;-54
2022/04/28 00:05:54;;;;;;;4.93;4.30;;;;;;;;;;4970012;28;20195;-54
2022/04/28 00:08:20;;;;;;;7.47;5.13;;;;;;;;;;4972628;28;20242;-54
2022/04/28 00:10:46;;;;;;;6.17;4.80;;;;;;;;;;4970111;28;20190;-54
2022/04/28 00:13:15;;;;;;;5.60;5.00;;;;;;;;;;4973346;28;20223;-53
2022/04/28 00:15:41;;;;;;;6.47;4.83;;;;;;;;;;4966776;28;20533;-54
2022/04/28 00:18:07;;;;;;;5.13;4.53;;;;;;;;;;4970401;28;20190;-54
2022/04/28 00:20:33;;;;;;;6.53;4.60;;;;;;;;;;4971453;28;20199;-53
2022/04/28 00:22:59;;;;;;;4.80;4.30;;;;;;;;;;4971838;28;20253;-54
2022/04/28 00:25:25;;;;;;;6.93;4.23;;;;;;;;;;4966215;28;20188;-54
2022/04/28 00:27:54;;;;;;;9.43;4.67;;;;;;;;;;4971282;28;20245;-53
2022/04/28 00:30:20;;;;;;;5.63;4.47;;;;;;;;;;4967779;28;20187;-54
2022/04/28 00:32:46;;;;;;;6.37;4.93;;;;;;;;;;4972879;28;20218;-53
2022/04/28 00:35:12;;;;;;;7.17;4.50;;;;;;;;;;4968470;28;20290;-53
2022/04/28 00:37:38;;;;;;;4.80;3.83;;;;;;;;;;4967115;28;20198;-53
2022/04/28 00:40:04;;;;;;;6.57;4.53;;;;;;;;;;4965451;28;20240;-54
2022/04/28 00:42:30;;;;;;;6.67;4.20;;;;;;;;;;4960557;28;20938;-54
2022/04/28 00:44:56;;;;;;;6.60;4.13;;;;;;;;;;4965757;28;20191;-53
2022/04/28 00:47:22;;;;;;;8.30;5.00;;;;;;;;;;4967239;28;20190;-53
2022/04/28 00:52:33;;;;;;;8.70;5.43;;;;;;;;;;4964630;28;20607;-54
2022/04/28 00:54:59;;;;;;;5.50;4.70;;;;;;;;;;4963208;28;20203;-54
2022/04/28 00:57:26;;;;;;;7.70;4.70;;;;;;;;;;4969069;28;20676;-54
2022/04/28 00:59:52;;;;;;;5.73;4.60;;;;;;;;;;4969129;28;20188;-54
2022/04/28 01:02:18;;;;;;;5.37;4.87;;;;;;;;;;4967900;28;20290;-53
2022/04/28 01:04:44;;;;;;;8.00;5.13;;;;;;;;;;4970420;28;20186;-54
2022/04/28 01:07:10;;;;;;;7.13;4.80;;;;;;;;;;4968761;28;20303;-53
2022/04/28 01:09:37;;;;;;;9.63;4.97;;;;;;;;;;4969536;28;20266;-53
2022/04/28 01:12:24;;;;;;;8.50;4.80;;;;;;;;;;4986432;28;20318;-52
2022/04/28 01:14:50;;;;;;;8.00;4.83;;;;;;;;;;4970727;28;20182;-54
2022/04/28 01:17:16;;;;;;;7.37;4.80;;;;;;;;;;4965731;28;20185;-54
2022/04/28 01:19:42;;;;;;;5.57;4.87;;;;;;;;;;4968091;28;20565;-53
2022/04/28 01:22:08;;;;;;;11.10;5.00;;;;;;;;;;4971541;28;20186;-53
2022/04/28 01:24:36;;;;;;;8.40;5.30;;;;;;;;;;4968236;28;20190;-53
2022/04/28 01:27:02;;;;;;;7.60;4.90;;;;;;;;;;4964440;28;20711;-53
2022/04/28 01:29:28;;;;;;;9.03;4.60;;;;;;;;;;4947173;28;20678;-53
2022/04/28 01:31:54;;;;;;;5.10;4.53;;;;;;;;;;4963600;28;20576;-54
2022/04/28 01:34:20;;;;;;;5.77;4.67;;;;;;;;;;4967744;28;20238;-53
2022/04/28 01:36:46;;;;;;;7.37;5.40;;;;;;;;;;4970382;28;20194;-53
2022/04/28 01:39:12;;;;;;;8.30;5.30;;;;;;;;;;4968477;28;20713;-53
2022/04/28 01:41:38;;;;;;;7.37;5.70;;;;;;;;;;4969869;28;20183;-53
2022/04/28 01:44:04;;;;;;;8.27;5.20;;;;;;;;;;4964857;28;20210;-53
2022/04/28 01:46:30;;;;;;;12.03;5.70;;;;;;;;;;4966941;28;20878;-54
2022/04/28 01:48:56;;;;;;;6.20;4.80;;;;;;;;;;4970305;28;20245;-53
2022/04/28 01:56:51;;;;;;;8.10;5.30;;;;;;;;;;4966721;28;20205;-53
2022/04/28 01:59:17;;;;;;;5.30;4.80;;;;;;;;;;4968884;28;20194;-54
2022/04/28 02:01:43;;;;;;;7.40;5.53;;;;;;;;;;4971249;28;20267;-53
2022/04/28 02:04:09;;;;;;;7.13;5.47;;;;;;;;;;4968476;28;20250;-52
2022/04/28 02:06:35;;;;;;;7.93;5.47;;;;;;;;;;4963543;28;20226;-53
2022/04/28 02:09:01;;;;;;;10.93;5.97;;;;;;;;;;4968105;28;20199;-53
2022/04/28 02:11:27;;;;;;;8.37;6.03;;;;;;;;;;4968157;28;20202;-53
2022/04/28 02:13:53;;;;;;;7.33;5.20;;;;;;;;;;4965838;28;20234;-53
2022/04/28 02:16:19;;;;;;;6.60;5.90;;;;;;;;;;4966728;28;20270;-53
2022/04/28 02:18:45;;;;;;;7.27;5.67;;;;;;;;;;4970214;28;20213;-53
2022/04/28 02:21:10;;;;;;;11.10;5.63;;;;;;;;;;4965153;28;20633;-53
2022/04/28 02:23:36;;;;;;;8.60;5.60;;;;;;;;;;4972689;28;20669;-53
2022/04/28 02:26:02;;;;;;;8.93;5.30;;;;;;;;;;4974005;28;20659;-53
2022/04/28 02:28:28;;;;;;;10.40;5.70;;;;;;;;;;4969177;28;20293;-53
2022/04/28 02:30:54;;;;;;;6.07;5.43;;;;;;;;;;4969862;28;20194;-53
2022/04/28 02:33:20;;;;;;;6.73;5.57;;;;;;;;;;4971778;28;20321;-54
2022/04/28 02:35:46;;;;;;;9.67;6.40;;;;;;;;;;4970768;28;20186;-53
2022/04/28 02:38:12;;;;;;;10.50;6.27;;;;;;;;;;4966376;28;20182;-53
2022/04/28 02:40:38;;;;;;;8.60;5.97;;;;;;;;;;4967855;28;20218;-53
2022/04/28 02:43:04;;;;;;;10.97;6.23;;;;;;;;;;4969380;28;20308;-52
2022/04/28 02:45:30;;;;;;;7.50;6.50;;;;;;;;;;4971718;28;20783;-53
2022/04/28 02:47:56;;;;;;;8.57;6.57;;;;;;;;;;4964886;28;20620;-54
2022/04/28 02:50:22;;;;;;;11.50;6.10;;;;;;;;;;4969968;28;20797;-53
2022/04/28 02:52:50;;;;;;;7.50;6.37;;;;;;;;;;4972339;28;20268;-53
2022/04/28 02:55:16;;;;;;;8.30;6.60;;;;;;;;;;4973482;28;20634;-56
2022/04/28 02:57:42;;;;;;;8.83;6.40;;;;;;;;;;4976145;28;20648;-53
2022/04/28 03:00:08;;;;;;;10.73;7.30;;;;;;;;;;4969915;28;20356;-53
2022/04/28 03:02:35;;;;;;;10.10;6.50;;;;;;;;;;4972211;28;20208;-53
2022/04/28 03:05:04;;;;;;;10.50;6.60;;;;;;;;;;4964067;28;20197;-53
2022/04/28 03:12:59;;;;;;;11.93;7.10;;;;;;;;;;4976384;28;20228;-54
2022/04/28 03:15:25;;;;;;;7.80;6.97;;;;;;;;;;4972085;28;20195;-53
2022/04/28 03:17:51;;;;;;;8.53;6.80;;;;;;;;;;4971541;28;20198;-53
2022/04/28 03:20:17;;;;;;;9.33;7.50;;;;;;;;;;4969186;28;20237;-53
2022/04/28 03:22:43;;;;;;;8.23;7.30;;;;;;;;;;4971670;28;20190;-53
2022/04/28 03:25:09;;;;;;;8.63;7.73;;;;;;;;;;4976920;28;21295;-54
2022/04/28 03:27:35;;;;;;;7.97;6.80;;;;;;;;;;4971484;28;20196;-53
2022/04/28 03:30:01;;;;;;;9.17;8.20;;;;;;;;;;4972837;28;20191;-53
2022/04/28 03:32:27;;;;;;;8.50;7.07;;;;;;;;;;4972087;28;20187;-52
2022/04/28 03:34:53;;;;;;;8.67;7.07;;;;;;;;;;4972054;28;20227;-53
2022/04/28 03:37:19;;;;;;;11.27;8.07;;;;;;;;;;4973042;28;20191;-53
2022/04/28 03:39:45;;;;;;;8.80;7.60;;;;;;;;;;4962032;28;20333;-53
2022/04/28 03:42:11;;;;;;;11.27;7.03;;;;;;;;;;4971114;28;20187;-53
2022/04/28 03:44:37;;;;;;;8.13;6.87;;;;;;;;;;4967838;28;20217;-53
2022/04/28 03:47:03;;;;;;;9.90;7.57;;;;;;;;;;4966361;28;20314;-52
2022/04/28 03:49:29;;;;;;;10.17;8.17;;;;;;;;;;4968761;28;20221;-52
2022/04/28 03:51:55;;;;;;;9.97;7.87;;;;;;;;;;4965393;28;20629;-53
2022/04/28 03:54:21;;;;;;;14.00;7.87;;;;;;;;;;4969186;28;20695;-53
2022/04/28 03:56:47;;;;;;;11.77;8.10;;;;;;;;;;4964079;28;20198;-53
2022/04/28 03:59:13;;;;;;;8.77;7.80;;;;;;;;;;4972055;28;20190;-54
2022/04/28 04:01:39;;;;;;;11.00;7.80;;;;;;;;;;4962078;28;20672;-54
2022/04/28 04:04:05;;;;;;;13.57;7.83;;;;;;;;;;4963721;28;20269;-52
2022/04/28 04:06:31;;;;;;;10.63;7.87;;;;;;;;;;4971602;28;20229;-53
2022/04/28 04:08:57;;;;;;;11.17;8.20;;;;;;;;;;4966008;28;20203;-52
2022/04/28 04:11:23;;;;;;;9.87;8.87;;;;;;;;;;4966449;28;20229;-53
2022/04/28 04:13:49;;;;;;;18.50;10.20;;;;;;;;;;4967159;28;20238;-53
2022/04/28 04:16:15;;;;;;;18.53;12.73;;;;;;;;;;4969291;28;20559;-53
2022/04/28 04:18:41;;;;;;;21.37;10.93;;;;;;;;;;4969807;28;20182;-53
2022/04/28 04:21:07;;;;;;;18.03;9.47;;;;;;;;;;4958924;28;20301;-53
2022/04/28 04:23:33;;;;;;;14.03;9.03;;;;;;;;;;4952705;28;20194;-53
2022/04/28 04:26:01;;;;;;;13.90;9.97;;;;;;;;;;4963407;28;20280;-52
2022/04/28 04:28:27;;;;;;;18.43;10.47;;;;;;;;;;4967300;28;20521;-53
2022/04/28 04:33:38;;;;;;;16.63;11.43;;;;;;;;;;4972353;28;20224;-53
2022/04/28 04:36:04;;;;;;;15.47;12.37;;;;;;;;;;4965171;28;20573;-53
2022/04/28 04:38:30;;;;;;;16.30;12.07;;;;;;;;;;4965467;28;20829;-54
2022/04/28 04:40:56;;;;;;;19.67;12.67;;;;;;;;;;4963061;28;20292;-53
2022/04/28 04:43:22;;;;;;;17.27;12.70;;;;;;;;;;4963216;28;20285;-53
2022/04/28 04:45:48;;;;;;;19.50;13.90;;;;;;;;;;4960585;28;20466;-53
2022/04/28 04:48:14;;;;;;;20.67;14.00;;;;;;;;;;4962244;28;20202;-53
2022/04/28 04:50:40;;;;;;;16.67;12.03;;;;;;;;;;4961691;28;20217;-53
2022/04/28 04:53:06;;;;;;;15.67;11.93;;;;;;;;;;4960004;28;20221;-53
2022/04/28 04:55:33;;;;;;;14.90;11.43;;;;;;;;;;4963913;28;20191;-52
2022/04/28 04:57:59;;;;;;;15.83;11.07;;;;;;;;;;4962441;28;20592;-53
2022/04/28 05:00:25;;;;;;;13.40;11.00;;;;;;;;;;4957183;28;20197;-53
2022/04/28 05:02:51;;;;;;;14.83;10.93;;;;;;;;;;4958778;28;20458;-52
2022/04/28 05:05:17;;;;;;;16.27;11.13;;;;;;;;;;4955053;28;20278;-53
2022/04/28 05:07:43;;;;;;;15.17;10.37;;;;;;;;;;4964249;28;20226;-51
2022/04/28 05:10:09;;;;;;;15.90;10.67;;;;;;;;;;4963873;28;20187;-52
2022/04/28 05:12:35;;;;;;;14.60;9.47;;;;;;;;;;4968592;28;20407;-54
2022/04/28 05:15:01;;;;;;;13.37;10.47;;;;;;;;;;4968191;28;20182;-51
2022/04/28 05:17:27;;;;;;;14.27;10.97;;;;;;;;;;4962120;28;20609;-51
2022/04/28 05:19:57;;;;;;;19.60;10.57;;;;;;;;;;4959454;28;20273;-53
2022/04/28 05:22:23;;;;;;;14.07;10.77;;;;;;;;;;4963295;28;20205;-54
2022/04/28 05:24:49;;;;;;;13.97;10.77;;;;;;;;;;4949980;28;20186;-52
2022/04/28 05:27:15;;;;;;;15.10;10.90;;;;;;;;;;4965137;28;20183;-52
2022/04/28 05:29:41;;;;;;;19.40;11.93;;;;;;;;;;4969810;28;20659;-52
2022/04/28 05:32:07;;;;;;;19.70;12.70;;;;;;;;;;4962084;28;20655;-52
2022/04/28 05:34:33;;;;;;;13.67;11.20;;;;;;;;;;4966430;28;21277;-51
2022/04/28 05:36:59;;;;;;;18.00;11.27;;;;;;;;;;4961754;28;20198;-48
2022/04/28 05:39:25;;;;;;;18.00;10.80;;;;;;;;;;4968401;28;20201;-48
2022/04/28 05:41:51;;;;;;;14.63;10.77;;;;;;;;;;4970572;28;20197;-49
2022/04/28 05:47:03;;;;;;;15.90;10.53;;;;;;;;;;4956062;28;20672;-49
2022/04/28 05:49:30;;;;;;;13.40;10.90;;;;;;;;;;4968184;28;20237;-49
2022/04/28 05:51:57;;;;;;;18.13;10.93;;;;;;;;;;4966014;28;20205;-51
2022/04/28 05:54:23;;;;;;;12.23;9.37;;;;;;;;;;4968804;28;20257;-51
2022/04/28 05:56:49;;;;;;;14.97;10.00;;;;;;;;;;4962782;28;20195;-50
2022/04/28 05:59:15;;;;;;;11.93;10.20;;;;;;;;;;4967067;28;20620;-50
2022/04/28 06:01:41;;;;;;;13.93;10.27;;;;;;;;;;4965443;28;20754;-50
2022/04/28 06:04:07;;;;;;;11.73;10.50;;;;;;;;;;4961685;28;20198;-50
2022/04/28 06:06:33;;;;;;;12.13;9.47;;;;;;;;;;4968411;28;20207;-50
2022/04/28 06:08:59;;;;;;;15.03;10.50;;;;;;;;;;4967642;28;20221;-50
2022/04/28 06:11:25;;;;;;;15.43;10.40;;;;;;;;;;4966621;28;20961;-50
2022/04/28 06:13:51;;;;;;;15.53;9.47;;;;;;;;;;4969330;28;20214;-50
2022/04/28 06:16:17;;;;;;;11.57;9.17;;;;;;;;;;4958596;28;20213;-50
2022/04/28 06:18:43;;;;;;;15.67;9.00;;;;;;;;;;4966789;28;20535;-50
2022/04/28 06:21:09;;;;;;;13.27;9.90;;;;;;;;;;4962236;28;20512;-50
2022/04/28 06:23:35;;;;;;;13.13;10.30;;;;;;;;;;4953070;28;20246;-51
2022/04/28 06:26:01;;;;;;;13.63;9.60;;;;;;;;;;4966294;28;20190;-50
2022/04/28 06:28:27;;;;;;;17.00;10.07;;;;;;;;;;4961385;28;20194;-50
2022/04/28 06:30:53;;;;;;;12.60;10.60;;;;;;;;;;4960415;28;20190;-50
2022/04/28 06:33:20;;;;;;;13.20;10.57;;;;;;;;;;4967520;28;20222;-50
2022/04/28 06:35:46;;;;;;;14.50;10.00;;;;;;;;;;4964362;28;20190;-50
2022/04/28 06:38:12;;;;;;;13.87;9.47;;;;;;;;;;4959702;28;20640;-50
2022/04/28 06:40:38;;;;;;;15.93;11.13;;;;;;;;;;4962126;28;20250;-49
2022/04/28 06:43:04;;;;;;;12.23;10.57;;;;;;;;;;4960001;28;20202;-50
2022/04/28 06:45:30;;;;;;;12.37;10.10;;;;;;;;;;4967600;28;20198;-50
2022/04/28 06:47:56;;;;;;;15.03;10.33;;;;;;;;;;4968664;28;20896;-50
2022/04/28 06:50:22;;;;;;;15.13;11.23;;;;;;;;;;4965993;28;20582;-50
2022/04/28 06:52:48;;;;;;;11.50;9.13;;;;;;;;;;4966355;28;20194;-50
2022/04/28 06:55:13;;;;;;;12.03;9.37;;;;;;;;;;4967848;28;20187;-50
2022/04/28 06:57:39;;;;;;;18.67;10.83;;;;;;;;;;4971079;28;20240;-51
2022/04/28 07:00:06;;;;;;;13.27;10.83;;;;;;;;;;4969014;28;20187;-50
2022/04/28 07:02:32;;;;;;;16.33;9.83;;;;;;;;;;4969264;28;20186;-51
2022/04/28 07:04:58;;;;;;;18.23;10.70;;;;;;;;;;4973631;28;20882;-51
2022/04/28 07:07:24;;;;;;;13.10;10.13;;;;;;;;;;4962772;28;20319;-50
2022/04/28 07:09:50;;;;;;;13.43;10.80;;;;;;;;;;4968754;28;20207;-51
2022/04/28 07:12:16;;;;;;;16.43;10.20;;;;;;;;;;4976130;28;20229;-51
2022/04/28 07:14:43;;;;;;;13.60;10.33;;;;;;;;;;4975564;28;20218;-50
2022/04/28 07:17:09;;;;;;;11.03;9.60;;;;;;;;;;4975722;28;20725;-51
2022/04/28 07:19:35;;;;;;;16.30;10.47;;;;;;;;;;4973444;28;20189;-51
2022/04/28 07:22:05;;;;;;;11.67;10.00;;;;;;;;;;4974590;28;20678;-50
2022/04/28 07:24:30;;;;;;;14.80;9.93;;;;;;;;;;4974394;28;20623;-50
2022/04/28 07:26:56;;;;;;;13.00;9.73;;;;;;;;;;4971146;28;20281;-51
2022/04/28 07:29:22;;;;;;;16.83;10.27;;;;;;;;;;4972973;28;20246;-50
2022/04/28 07:31:48;;;;;;;13.27;9.37;;;;;;;;;;4967516;28;20203;-51
2022/04/28 07:34:14;;;;;;;12.20;10.60;;;;;;;;;;4974997;28;20215;-51
2022/04/28 07:36:40;;;;;;;12.80;10.53;;;;;;;;;;4969585;28;20179;-50
2022/04/28 07:39:06;;;;;;;14.23;10.97;;;;;;;;;;4970657;28;20186;-50
2022/04/28 07:41:32;;;;;;;15.40;10.93;;;;;;;;;;4973172;28;20207;-51
2022/04/28 07:43:58;;;;;;;12.87;10.57;;;;;;;;;;4970620;28;20183;-51
2022/04/28 07:46:24;;;;;;;11.67;10.47;;;;;;;;;;4967572;28;20186;-50
2022/04/28 07:48:50;;;;;;;12.70;10.03;;;;;;;;;;4972780;28;20183;-50
2022/04/28 07:51:16;;;;;;;11.00;9.83;;;;;;;;;;4970854;28;20294;-50
2022/04/28 07:53:42;;;;;;;12.93;10.70;;;;;;;;;;4974357;28;20214;-50
2022/04/28 07:56:10;;;;;;;13.63;10.07;;;;;;;;;;4974871;28;20184;-50
2022/04/28 07:58:37;;;;;;;13.10;9.93;;;;;;;;;;4975447;28;20191;-50
2022/04/28 08:01:02;;;;;;;14.23;10.43;;;;;;;;;;4975558;28;20252;-51
2022/04/28 08:03:28;;;;;;;16.47;10.83;;;;;;;;;;4968732;28;20206;-51
2022/04/28 08:05:54;;;;;;;10.90;9.80;;;;;;;;;;4965331;28;20544;-51
2022/04/28 08:08:20;;;;;;;11.97;10.07;;;;;;;;;;4975768;28;20266;-51
2022/04/28 08:10:47;;;;;;;12.37;10.60;;;;;;;;;;4977713;28;20545;-50
2022/04/28 08:13:12;;;;;;;12.13;10.20;;;;;;;;;;4974589;28;20589;-51
2022/04/28 08:15:38;;;;;;;12.50;9.80;;;;;;;;;;4966249;28;20193;-50
2022/04/28 08:18:05;;;;;;;13.03;11.00;;;;;;;;;;4972192;28;20190;-51
2022/04/28 08:20:31;;;;;;;14.67;11.80;;;;;;;;;;4972395;28;20202;-51
2022/04/28 08:22:57;;;;;;;12.93;11.63;;;;;;;;;;4975138;28;20249;-51
2022/04/28 08:25:23;;;;;;;19.20;11.23;;;;;;;;;;4970649;28;20699;-50
2022/04/28 08:27:49;;;;;;;13.23;10.70;;;;;;;;;;4975108;28;20244;-51
2022/04/28 08:30:15;;;;;;;13.67;9.30;;;;;;;;;;4975907;28;20191;-51
2022/04/28 08:32:41;;;;;;;13.57;10.27;;;;;;;;;;4969850;28;20221;-52
2022/04/28 08:35:07;;;;;;;12.30;10.23;;;;;;;;;;4974411;28;20213;-51
2022/04/28 08:37:33;;;;;;;12.60;9.13;;;;;;;;;;4973981;28;20198;-51
2022/04/28 08:39:59;;;;;;;15.93;10.25;;;;;;;;;;4974108;28;20183;-51
2022/04/28 08:42:25;;;;;;;11.45;9.40;;;;;;;;;;4972778;28;20342;-50
2022/04/28 08:44:51;;;;;;;13.00;9.77;;;;;;;;;;4971483;28;21063;-51
2022/04/28 08:47:17;;;;;;;11.07;9.00;;;;;;;;;;4972794;28;20640;-51
2022/04/28 08:49:43;;;;;;;13.30;10.05;;;;;;;;;;4971650;28;20652;-51
2022/04/28 08:52:10;;;;;;;10.23;8.88;;;;;;;;;;4971549;28;20202;-51
2022/04/28 08:54:36;;;;;;;10.48;9.10;;;;;;;;;;4963185;28;20611;-51
2022/04/28 08:57:02;;;;;;;10.82;8.45;;;;;;;;;;4964436;28;20191;-52
2022/04/28 08:59:28;;;;;;;11.50;8.73;;;;;;;;;;4958250;28;20727;-51
2022/04/28 09:01:54;;;;;;;10.23;8.40;;;;;;;;;;4967133;28;20186;-51
2022/04/28 09:04:22;;;;;;;15.35;8.68;;;;;;;;;;4964938;28;20190;-51
2022/04/28 09:06:52;;;;;;;12.32;8.27;;;;;;;;;;4964419;28;20217;-51
2022/04/28 09:09:18;;;;;;;10.20;7.68;;;;;;;;;;4968095;28;20811;-51
2022/04/28 09:11:44;;;;;;;8.70;7.72;;;;;;;;;;4970961;28;20197;-51
2022/04/28 09:14:15;;;;;;;10.52;7.80;;;;;;;;;;4972766;28;20199;-51
2022/04/28 09:16:58;;;;;;;8.80;7.90;;;;;;;;;;4960963;28;20861;-51
2022/04/28 09:19:25;;;;;;;8.05;7.15;;;;;;;;;;4965567;28;20193;-51
2022/04/28 09:21:53;;;;;;;8.00;6.75;;;;;;;;;;4972140;28;20253;-51
2022/04/28 09:24:19;;;;;;;8.27;7.10;;;;;;;;;;4965464;28;20182;-51
2022/04/28 09:26:45;;;;;;;9.02;7.53;;;;;;;;;;4964857;28;20664;-51
2022/04/28 09:29:12;;;;;;;9.55;7.53;;;;;;;;;;4961614;28;20195;-51
2022/04/28 09:31:38;;;;;;;7.57;6.32;;;;;;;;;;4954423;28;21811;-52
2022/04/28 09:34:08;;;;;;;6.43;5.75;;;;;;;;;;4967003;28;20336;-50
2022/04/28 09:36:34;;;;;;;6.70;6.05;;;;;;;;;;4968209;28;20179;-50
2022/04/28 09:39:00;;;;;;;7.78;5.93;;;;;;;;;;4962571;28;20195;-50
2022/04/28 09:44:12;;;;;;;8.52;6.13;;;;;;;;;;4961213;28;20656;-50
2022/04/28 09:46:41;;;;;;;7.18;6.00;;;;;;;;;;4961675;28;20257;-51
2022/04/28 09:49:08;;;;;;;7.53;6.10;;;;;;;;;;4967299;28;20208;-51
2022/04/28 09:51:34;;;;;;;6.65;6.05;;;;;;;;;;4963634;28;20649;-51
2022/04/28 09:54:00;;;;;;;7.28;6.38;;;;;;;;;;4962853;28;20249;-51
2022/04/28 09:56:28;;;;;;;7.20;5.88;;;;;;;;;;4960343;28;20801;-50
2022/04/28 09:58:54;;;;;;;6.03;5.47;;;;;;;;;;4959095;28;20550;-50
2022/04/28 10:01:20;;;;;;;8.73;4.97;;;;;;;;;;4964377;28;20190;-51
2022/04/28 10:03:46;;;;;;;6.47;5.38;;;;;;;;;;4961804;28;20182;-50
2022/04/28 10:06:12;;;;;;;12.02;10.32;;;;;;;;;;4968881;28;20285;-50
2022/04/28 10:08:38;;;;;;;12.48;10.65;;;;;;;;;;4971296;28;20234;-49
2022/04/28 10:11:07;;;;;;;12.27;11.07;;;;;;;;;;4966160;28;20676;-49
2022/04/28 10:13:33;;;;;;;14.30;11.57;;;;;;;;;;4968405;28;20249;-50
2022/04/28 10:16:00;;;;;;;12.77;11.45;;;;;;;;;;4969471;28;20195;-50
2022/04/28 10:18:30;;;;;;;18.95;11.70;;;;;;;;;;4968379;28;20566;-49
2022/04/28 10:20:59;;;;;;;11.43;10.32;;;;;;;;;;4966334;28;20675;-49
2022/04/28 10:34:33;;;;;;;13.38;11.98;;;;;;;;;;4960795;28;20615;-49
2022/04/28 10:37:00;;;;;;;14.02;11.80;;;;;;;;;;4960611;28;20651;-49
2022/04/28 10:39:39;;;;;;;12.48;11.25;;;;;;;;;;4963431;28;20188;-49
2022/04/28 10:42:23;;;;;;;11.15;10.05;;;;;;;;;;4966670;28;20191;-49
2022/04/28 10:44:54;;;;;;;14.52;10.57;;;;;;;;;;4976215;28;20667;-49
2022/04/28 10:47:30;;;;;;;12.15;10.95;;;;;;;;;;4971412;28;20185;-49
2022/04/28 10:49:56;;;;;;;11.68;10.43;;;;;;;;;;4973378;28;20185;-49
2022/04/28 10:52:26;;;;;;;11.45;10.35;;;;;;;;;;4978277;28;21472;-49
2022/04/28 10:54:53;;;;;;;13.45;9.25;;;;;;;;;;4971238;28;20679;-49
2022/04/28 10:57:19;;;;;;;11.77;9.70;;;;;;;;;;4967391;28;20289;-48
2022/04/28 10:59:49;;;;;;;11.80;9.90;;;;;;;;;;4970133;28;20201;-49
2022/04/28 11:02:21;;;;;;;12.43;11.18;;;;;;;;;;4966705;28;20219;-49
2022/04/28 11:05:03;;;;;;;13.48;10.75;;;;;;;;;;4966619;28;20175;-49
2022/04/28 11:07:29;;;;;;;13.55;11.70;;;;;;;;;;4964203;28;20249;-52
2022/04/28 11:10:00;;;;;;;19.25;12.80;;;;;;;;;;4965108;28;20191;-52
2022/04/28 11:12:32;;;;;;;12.45;10.68;;;;;;;;;;4971478;28;20198;-52
2022/04/28 11:15:02;;;;;;;14.30;12.02;;;;;;;;;;4964704;28;20216;-52
2022/04/28 11:17:28;;;;;;;14.30;10.68;;;;;;;;;;4968109;28;20660;-49
2022/04/28 11:19:54;;;;;;;9.98;6.50;;;;;;;;;;4964222;28;20186;-49
2022/04/28 11:22:21;;;;;;;12.50;6.65;;;;;;;;;;4969113;28;21067;-49
2022/04/28 11:24:47;;;;;;;8.48;6.25;;;;;;;;;;4974059;28;20274;-49
2022/04/28 11:27:20;;;;;;;8.75;5.35;;;;;;;;;;4974825;28;20199;-49
2022/04/28 11:29:46;;;;;;;8.70;6.65;;;;;;;;;;4973228;28;20198;-50
2022/04/28 11:32:13;;;;;;;7.82;6.45;;;;;;;;;;4974178;28;20265;-49
2022/04/28 11:34:40;;;;;;;5.82;5.32;;;;;;;;;;4974008;28;20206;-49
2022/04/28 11:37:18;;;;;;;6.85;5.45;;;;;;;;;;4975556;28;20183;-49
2022/04/28 11:39:48;;;;;;;5.60;5.10;;;;;;;;;;4965991;28;20174;-50
2022/04/28 11:42:16;;;;;;;6.82;4.63;;;;;;;;;;4971956;28;20183;-49
2022/04/28 11:44:51;;;;;;;6.68;5.90;;;;;;;;;;4974068;28;20210;-49
2022/04/28 11:47:17;;;;;;;6.00;4.80;;;;;;;;;;4977243;28;20929;-50
2022/04/28 11:49:43;;;;;;;9.02;5.70;;;;;;;;;;4977021;28;20252;-49
2022/04/28 11:52:19;;;;;;;5.35;4.07;;;;;;;;;;4975961;28;20599;-50
2022/04/28 11:54:45;;;;;;;5.70;4.53;;;;;;;;;;4973207;28;20213;-50
2022/04/28 11:57:11;;;;;;;7.50;4.45;;;;;;;;;;4975688;28;20187;-50
2022/04/28 11:59:37;;;;;;;5.80;4.43;;;;;;;;;;4974474;28;20675;-49
2022/04/28 12:02:03;;;;;;;5.43;4.20;;;;;;;;;;4973949;28;20261;-50
2022/04/28 12:04:29;;;;;;;5.55;4.10;;;;;;;;;;4971498;28;20261;-50
2022/04/28 12:06:55;;;;;;;5.50;3.72;;;;;;;;;;4972764;28;20237;-49
2022/04/28 12:14:52;;;;;;;6.97;4.15;;;;;;;;;;4966764;28;20637;-49
2022/04/28 12:20:04;;;;;;;15.27;9.00;;;;;;;;;;4967503;28;20186;-53
2022/04/28 12:22:37;;;;;;;11.00;9.38;;;;;;;;;;4964340;28;20537;-53
2022/04/28 12:25:04;;;;;;;13.40;9.90;;;;;;;;;;4967461;28;20187;-52
2022/04/28 12:27:47;;;;;;;13.85;10.30;;;;;;;;;;4968995;28;20269;-52
2022/04/28 12:30:14;;;;;;;12.77;9.63;;;;;;;;;;4970467;28;20175;-53
2022/04/28 12:32:41;;;;;;;12.68;10.32;;;;;;;;;;4966490;28;20195;-53
2022/04/28 12:35:07;;;;;;;4.85;3.75;;;;;;;;;;4957116;28;20223;-49
2022/04/28 12:37:38;;;;;;;5.03;3.45;;;;;;;;;;4963257;28;20464;-49
2022/04/28 12:40:04;;;;;;;5.57;3.10;;;;;;;;;;4968146;28;20644;-49
2022/04/28 12:42:44;;;;;;;4.13;3.72;;;;;;;;;;4962345;28;20578;-50
2022/04/28 12:45:10;;;;;;;6.30;4.15;;;;;;;;;;4971581;28;20182;-50
2022/04/28 12:47:36;;;;;;;6.47;3.90;;;;;;;;;;4970103;28;20309;-49
2022/04/28 12:50:04;;;;;;;4.35;3.50;;;;;;;;;;4971053;28;20723;-50
2022/04/28 12:52:31;;;;;;;6.25;3.30;;;;;;;;;;4973047;28;20191;-49
2022/04/28 12:55:06;;;;;;;4.22;3.72;;;;;;;;;;4973029;28;20230;-50
2022/04/28 12:57:32;;;;;;;4.72;3.80;;;;;;;;;;4969942;28;20198;-50
2022/04/28 13:00:05;;;;;;;6.38;4.25;;;;;;;;;;4965566;28;20685;-49
2022/04/28 13:02:31;;;;;;;9.52;3.58;;;;;;;;;;4954763;28;20591;-49
2022/04/28 13:05:07;;;;;;;6.45;4.45;;;;;;;;;;4956705;28;20240;-50
2022/04/28 13:07:33;;;;;;;6.55;4.32;;;;;;;;;;4961562;28;20324;-50
2022/04/28 13:09:59;;;;;;;7.03;3.78;;;;;;;;;;4965004;28;20975;-50
2022/04/28 13:12:25;;;;;;;6.85;3.97;;;;;;;;;;4967737;28;21093;-50
2022/04/28 13:14:52;;;;;;;4.63;3.20;;;;;;;;;;4963552;28;20660;-49
2022/04/28 13:17:18;;;;;;;8.32;4.45;;;;;;;;;;4963255;28;20179;-50
2022/04/28 13:19:44;;;;;;;6.78;4.50;;;;;;;;;;4963583;28;20191;-50
2022/04/28 13:22:10;;;;;;;5.47;4.18;;;;;;;;;;4966877;28;20274;-50
2022/04/28 13:24:36;;;;;;;5.57;3.90;;;;;;;;;;4959029;28;20191;-49
2022/04/28 13:27:02;;;;;;;4.57;3.90;;;;;;;;;;4949228;28;20240;-49
2022/04/28 13:29:28;;;;;;;7.60;4.40;;;;;;;;;;4956324;28;20182;-49
2022/04/28 13:31:54;;;;;;;4.97;3.20;;;;;;;;;;4963376;28;20216;-49
2022/04/28 13:34:20;;;;;;;5.30;2.97;;;;;;;;;;4957819;28;20211;-49
2022/04/28 13:36:46;;;;;;;4.15;3.10;;;;;;;;;;4963869;28;20223;-50
2022/04/28 13:39:12;;;;;;;4.78;3.50;;;;;;;;;;4965205;28;20253;-49
2022/04/28 13:41:38;;;;;;;4.60;3.28;;;;;;;;;;4963842;28;20186;-50
2022/04/28 13:44:06;;;;;;;4.93;2.92;;;;;;;;;;4967642;28;20198;-51
2022/04/28 13:46:33;;;;;;;5.57;3.20;;;;;;;;;;4964955;28;20206;-51
2022/04/28 13:48:59;;;;;;;5.95;3.92;;;;;;;;;;4968624;28;20686;-50
2022/04/28 13:51:25;;;;;;;4.10;2.80;;;;;;;;;;4962941;28;20189;-51
2022/04/28 13:53:51;;;;;;;4.95;3.08;;;;;;;;;;4965772;28;20303;-51
2022/04/28 13:56:17;;;;;;;4.25;3.85;;;;;;;;;;4961584;28;20543;-50
2022/04/28 13:58:44;;;;;;;3.75;3.10;;;;;;;;;;4965321;28;20567;-51
2022/04/28 14:01:10;;;;;;;6.40;4.05;;;;;;;;;;4957644;28;20206;-51
2022/04/28 14:03:36;;;;;;;4.82;4.32;;;;;;;;;;4963372;28;20270;-50
2022/04/28 14:06:03;;;;;;;12.98;9.35;;;;;;;;;;4964355;28;20632;-54
2022/04/28 14:08:29;;;;;;;10.98;8.82;;;;;;;;;;4956264;28;20324;-54
2022/04/28 14:10:56;;;;;;;12.73;9.23;;;;;;;;;;4962375;28;20269;-53
2022/04/28 14:13:22;;;;;;;11.93;9.25;;;;;;;;;;4944363;28;20218;-53
2022/04/28 14:15:48;;;;;;;11.82;10.13;;;;;;;;;;4945352;28;20186;-53
2022/04/28 14:18:14;;;;;;;14.57;9.48;;;;;;;;;;4965026;28;20269;-53
2022/04/28 14:20:41;;;;;;;16.52;9.45;;;;;;;;;;4956040;28;20640;-53
2022/04/28 14:23:08;;;;;;;10.43;8.75;;;;;;;;;;4945283;28;26534;-53
2022/04/28 14:25:34;;;;;;;10.00;8.13;;;;;;;;;;4944843;28;20694;-53
2022/04/28 14:28:00;;;;;;;12.40;9.48;;;;;;;;;;4950452;28;20187;-53
2022/04/28 14:30:26;;;;;;;9.93;8.93;;;;;;;;;;4955270;28;20669;-53
2022/04/28 14:32:52;;;;;;;11.27;8.82;;;;;;;;;;4961971;28;20929;-53
2022/04/28 14:35:18;;;;;;;12.73;9.35;;;;;;;;;;4957959;28;20305;-53
2022/04/28 14:37:45;;;;;;;12.18;9.20;;;;;;;;;;4959266;28;20191;-53
2022/04/28 14:40:12;;;;;;;14.50;8.88;;;;;;;;;;4957346;28;20178;-53
2022/04/28 14:42:38;;;;;;;11.90;9.00;;;;;;;;;;4956648;28;20220;-54
2022/04/28 14:45:04;;;;;;;12.77;8.55;;;;;;;;;;4956049;28;20206;-53
2022/04/28 14:47:30;;;;;;;12.40;9.20;;;;;;;;;;4948111;28;20186;-54
2022/04/28 14:52:41;;;;;;;10.20;9.00;;;;;;;;;;4955679;28;20202;-53
2022/04/28 14:55:07;;;;;;;11.18;7.78;;;;;;;;;;4948840;28;20261;-54
2022/04/28 14:57:34;;;;;;;10.85;8.15;;;;;;;;;;4939780;28;20190;-54
2022/04/28 15:00:01;;;;;;;13.02;9.05;;;;;;;;;;4952328;28;20591;-54
2022/04/28 15:02:27;;;;;;;10.52;8.70;;;;;;;;;;4951917;28;20182;-54
2022/04/28 15:04:53;;;;;;;11.60;8.27;;;;;;;;;;4964833;28;20252;-54
2022/04/28 15:07:19;;;;;;;11.48;8.05;;;;;;;;;;4955360;28;20273;-53
2022/04/28 15:09:45;;;;;;;12.07;8.80;;;;;;;;;;4955364;28;20197;-53
2022/04/28 15:12:11;;;;;;;14.63;9.45;;;;;;;;;;4957571;28;20665;-54